航空気象通報

ウインドサーファーのための航空気象通報による風予報です。

6/28-29の航空気象通報(国内、海外)

2009年06月28日 22時23分38秒 | TAF
羽田空港
TAF RJTT 280835Z 2809/2912 01016KT 9999 FEW010 BKN015 BKN030
TEMPO 2809/2812 4000 RA BR
日本時間28日18時-29日21時:010度から16ノットの風

但し、28日18-21時の間:一時、

那覇空港
TAF ROAH 280835Z 2809/2912 18009KT 9999 FEW015
日本時間28日18時-29日21時:180度から9ノットの風


マウイのカフルイ空港
PHOG 281124Z 2812/2912 03012KT P6SM FEW050
FM281600 03010KT P6SM VCSH SCT025 BKN050
TEMPO 2816/2819 5SM -SHRA BKN025
FM282100 05018G25KT P6SM FEW030 BKN050
FM290500 05012G20KT P6SM SCT050
ハワイ時間28日02-06時:030度から12ノットの風

06-11時:030度から10ノットの風
11-19時:050度から18ノット、突風25ノット

但し、28日06-09時の間:一時、
19時-29日02時:050度から12ノット、突風20ノット


サイパン空港
PGSN 281120Z 2812/2912 VRB05KT P6SM VCSH SCT020CB SCT090
マリアナ時間28日22時-29日22時:風向不定5ノットの風

コメント

6/27-28の航空気象通報(国内、海外)

2009年06月27日 21時18分03秒 | TAF
羽田空港
TAF RJTT 270840Z 2709/2812 20016KT 9999 FEW030
BECMG 2716/2718 18004KT
TEMPO 2721/2724 4000 BR
BECMG 2800/2803 16014KT
日本時間27日18時-28日01時:200度から16ノットの風
01-03時:風が変化
03-09時:180度から4ノットの風
09-12時:風が変化
12-21時:160度から14ノットの風

但し、28日06-09時の間:もや

那覇空港
TAF ROAH 270837Z 2709/2812 19009KT 9999 FEW015 SCT030
日本時間27日18時-28日21時:190度から9ノットの風


マウイのカフルイ空港
PHOG 271134Z 2712/2812 03012KT P6SM FEW030 SCT050 BKN200
FM271700 05014G20KT P6SM FEW030 SCT050 BKN200
FM272000 05018G28KT P6SM FEW030 SCT050 BKN200
FM280700 03012KT P6SM FEW030 SCT050 BKN200
ハワイ時間27日02-07時:030度から12ノットの風
07-10時:050度から14ノット、突風20ノット
10-21時:050度から18ノット、突風28ノット
21時-28日02時:030度から12ノットの風


サイパン空港
PGSN 271134Z 2712/2812 09007KT P6SM VCSH SCT100
マリアナ時間27日22時-28日22時:090度から7ノットの風

コメント

6/26-27の航空気象通報(国内、海外)

2009年06月26日 23時42分50秒 | TAF
羽田空港
TAF RJTT 260845Z 2609/2712 20014KT 9999 FEW030
BECMG 2614/2616 21004KT
BECMG 2618/2621 34005KT
BECMG 2700/2703 18012KT
日本時間26日18-23時:200度から14ノットの風
23時-27日01時:風が変化
01-03時:210度から4ノットの風
03-06時:風が変化
06-09時:340度から5ノットの風
09-12時:風が変化
12-21時:180度から12ノットの風


那覇空港
TAF ROAH 260848Z 2609/2712 06012KT 9999 -SHRA FEW015 SCT030
TEMPO 2609/2611 03015G25KT 3000 +TSRA FEW005 BKN008 FEW025CB
BECMG 2611/2613 18008KT
日本時間26日18-20時:060度から12ノットの風
但し、26日18-20時の間:一時、030度から15ノット、突風25ノット、
26日20-22時:風が変化
22時-27日02時の間:180度から8ノットの風


マウイのカフルイ空港
PHOG 261137Z 2612/2712 13003KT P6SM SCT050
FM261700 06012KT P6SM SCT050
FM261900 06018G25KT P6SM FEW035 SCT050
FM270500 05012KT P6SM FEW035 SCT050
FM270900 05006KT P6SM SCT050
ハワイ時間26日02-07時:130度から3ノットの風
07-09時:060度から12ノットの風
09-19時:060度から18ノット、突風25ノット
19-23時:050度から12ノットの風
23時-27日02時:050度から6ノットの風


サイパン空港
PGSN 261120Z 2612/2712 09007KT P6SM SCT022
マリアナ時間26日22時-27日22時:090度から7ノットの風

コメント

6/24-25の航空気象通報(国内、海外)

2009年06月24日 22時04分24秒 | TAF
羽田空港
TAF RJTT 240836Z 2409/2512 16006KT 9999 FEW020
BECMG 2415/2417 04004KT
TEMPO 2418/2424 3000 BR FEW006 BKN009
BECMG 2500/2503 09008KT
BECMG 2503/2506 18010KT
日本時間24日18-24時:160度から6ノットの風
25日00-02時:風が変化
02-09時:040度から4ノットの風
09-12時:風が変化
12時:090度から8ノットの風
12-15時:風が変化
15-21時:180度から10ノットの風

但し、03-09時の間:一時、もや

那覇空港
TAF ROAH 240851Z 2409/2512 19012KT 9999 FEW010 SCT020
TEMPO 2414/2416 2000 +SHRA FEW008 BKN015 FEW020CB
日本時間24日18時-25日21時:190度から12ノットの風

但し、24日23時-25日01時の間:一時、

マウイのカフルイ空港
PHOG 241130Z 2412/2512 05015KT P6SM FEW050
FM242000 05018G28KT P6SM SCT050
FM250500 05013KT P6SM FEW050
ハワイ時間24日02-10時:050度から15ノットの風
10-19時:050度から18ノット、突風28ノット
19時-25日02時:050度から13ノットの風


サイパン空港
PGSN 241126Z 2412/2512 05007KT P6SM VCSH SCT025
マリアナ時間24日22時-25日22時:050度から7ノットの風

コメント

6/23-24の航空気象通報(国内、海外)

2009年06月23日 23時05分22秒 | TAF
羽田空港
TAF RJTT 230845Z 2309/2412 19012KT 9999 FEW030
BECMG 2316/2318 05009KT
BECMG 2318/2321 3000 SHRA BR FEW006 BKN009 BKN015
TEMPO 2321/2324 1500 +SHRA BR FEW004 BKN006 BKN015
BECMG 2400/2403 6000 NSW FEW008 SCT012 BKN040
BECMG 2409/2412 20008KT
日本時間23日20時-24日01時:190度から12ノットの風

01-03時:風が変化
03-18時:050度から9ノットの風
18-21時:風が変化
21時:200度から8ノットの風

但し、03-09時の間:一時、

那覇空港
TAF ROAH 230838Z 2309/2412 21014KT 9999 FEW015
日本時間23日18時-24日21時:210度から14ノットの風


マウイのカフルイ空港
PHOG 231120Z 2312/2412 05012KT P6SM SCT050
FM232000 05018G28KT P6SM SCT050
FM240100 05015G25KT P6SM SCT050
FM240800 05012KT P6SM SCT050
ハワイ時間23日02-10時:050度から12ノットの風
10-15時:050度から18ノット、突風28ノット
15-22時:050度から15ノット、突風25ノット
22時-24日02時:050度から12ノットの風


サイパン空港
PGSN 231120Z 2312/2412 09009KT P6SM FEW020
マリアナ時間23日22時-24日22時:090度から9ノットの風

コメント